sensor_id;sensor_type;location;lat;lon;timestamp;temperature;humidity
44487;DHT22;30191;50.908;6.962;2024-01-06T00:01:43;8.40;99.90
44487;DHT22;30191;50.908;6.962;2024-01-06T00:04:08;8.30;99.90
44487;DHT22;30191;50.908;6.962;2024-01-06T00:06:34;8.30;99.90
44487;DHT22;30191;50.908;6.962;2024-01-06T00:09:00;8.30;99.90
44487;DHT22;30191;50.908;6.962;2024-01-06T00:11:26;8.40;99.90
44487;DHT22;30191;50.908;6.962;2024-01-06T00:13:52;8.40;99.90
44487;DHT22;30191;50.908;6.962;2024-01-06T00:16:18;8.40;99.90
44487;DHT22;30191;50.908;6.962;2024-01-06T00:18:44;8.40;99.90
44487;DHT22;30191;50.908;6.962;2024-01-06T00:21:10;8.40;99.90
44487;DHT22;30191;50.908;6.962;2024-01-06T00:23:36;8.50;99.90
44487;DHT22;30191;50.908;6.962;2024-01-06T00:26:01;8.40;99.90
44487;DHT22;30191;50.908;6.962;2024-01-06T00:28:28;8.40;99.90
44487;DHT22;30191;50.908;6.962;2024-01-06T00:30:53;8.40;99.90
44487;DHT22;30191;50.908;6.962;2024-01-06T00:33:19;8.40;99.90
44487;DHT22;30191;50.908;6.962;2024-01-06T00:35:44;8.40;99.90
44487;DHT22;30191;50.908;6.962;2024-01-06T00:38:10;8.40;99.90
44487;DHT22;30191;50.908;6.962;2024-01-06T00:40:36;8.40;99.90
44487;DHT22;30191;50.908;6.962;2024-01-06T00:43:01;8.30;99.90
44487;DHT22;30191;50.908;6.962;2024-01-06T00:45:27;8.40;99.90
44487;DHT22;30191;50.908;6.962;2024-01-06T00:47:52;8.40;99.90
44487;DHT22;30191;50.908;6.962;2024-01-06T00:50:18;8.40;99.90
44487;DHT22;30191;50.908;6.962;2024-01-06T00:52:47;8.40;99.90
44487;DHT22;30191;50.908;6.962;2024-01-06T00:55:13;8.30;99.90
44487;DHT22;30191;50.908;6.962;2024-01-06T00:57:38;8.30;99.90
44487;DHT22;30191;50.908;6.962;2024-01-06T01:00:05;8.30;99.90
44487;DHT22;30191;50.908;6.962;2024-01-06T01:02:31;8.30;99.90
44487;DHT22;30191;50.908;6.962;2024-01-06T01:04:57;8.30;99.90
44487;DHT22;30191;50.908;6.962;2024-01-06T01:07:23;8.30;99.90
44487;DHT22;30191;50.908;6.962;2024-01-06T01:09:49;8.20;99.90
44487;DHT22;30191;50.908;6.962;2024-01-06T01:12:15;8.20;99.90
44487;DHT22;30191;50.908;6.962;2024-01-06T01:14:40;8.20;99.90
44487;DHT22;30191;50.908;6.962;2024-01-06T01:17:06;8.20;99.90
44487;DHT22;30191;50.908;6.962;2024-01-06T01:19:31;8.20;99.90
44487;DHT22;30191;50.908;6.962;2024-01-06T01:21:57;8.20;99.90
44487;DHT22;30191;50.908;6.962;2024-01-06T01:24:23;8.30;99.90
44487;DHT22;30191;50.908;6.962;2024-01-06T01:26:49;8.20;99.90
44487;DHT22;30191;50.908;6.962;2024-01-06T01:29:16;8.30;99.90
44487;DHT22;30191;50.908;6.962;2024-01-06T01:31:42;8.30;99.90
44487;DHT22;30191;50.908;6.962;2024-01-06T01:34:08;8.40;99.90
44487;DHT22;30191;50.908;6.962;2024-01-06T01:36:33;8.40;99.90
44487;DHT22;30191;50.908;6.962;2024-01-06T01:38:59;8.40;99.90
44487;DHT22;30191;50.908;6.962;2024-01-06T01:41:25;8.40;99.90
44487;DHT22;30191;50.908;6.962;2024-01-06T01:43:50;8.40;99.90
44487;DHT22;30191;50.908;6.962;2024-01-06T01:46:27;8.40;99.90
44487;DHT22;30191;50.908;6.962;2024-01-06T01:48:58;8.40;99.90
44487;DHT22;30191;50.908;6.962;2024-01-06T01:51:27;8.50;99.90
44487;DHT22;30191;50.908;6.962;2024-01-06T01:53:54;8.50;99.90
44487;DHT22;30191;50.908;6.962;2024-01-06T01:56:20;8.60;99.90
44487;DHT22;30191;50.908;6.962;2024-01-06T01:58:46;8.60;99.90
44487;DHT22;30191;50.908;6.962;2024-01-06T02:01:13;8.60;99.90
44487;DHT22;30191;50.908;6.962;2024-01-06T02:03:41;8.50;99.90
44487;DHT22;30191;50.908;6.962;2024-01-06T02:06:09;8.50;99.90
44487;DHT22;30191;50.908;6.962;2024-01-06T02:08:35;8.50;99.90
44487;DHT22;30191;50.908;6.962;2024-01-06T02:11:00;8.60;99.90
44487;DHT22;30191;50.908;6.962;2024-01-06T02:13:33;8.50;99.90
44487;DHT22;30191;50.908;6.962;2024-01-06T02:16:00;8.50;99.90
44487;DHT22;30191;50.908;6.962;2024-01-06T02:18:26;8.50;99.90
44487;DHT22;30191;50.908;6.962;2024-01-06T02:20:53;8.50;99.90
44487;DHT22;30191;50.908;6.962;2024-01-06T02:23:22;8.50;99.90
44487;DHT22;30191;50.908;6.962;2024-01-06T02:25:48;8.60;99.90
44487;DHT22;30191;50.908;6.962;2024-01-06T02:28:13;8.60;99.90
44487;DHT22;30191;50.908;6.962;2024-01-06T02:30:39;8.70;99.90
44487;DHT22;30191;50.908;6.962;2024-01-06T02:33:05;8.60;99.90
44487;DHT22;30191;50.908;6.962;2024-01-06T02:35:30;8.60;99.90
44487;DHT22;30191;50.908;6.962;2024-01-06T02:37:56;8.60;99.90
44487;DHT22;30191;50.908;6.962;2024-01-06T02:40:21;8.60;99.90
44487;DHT22;30191;50.908;6.962;2024-01-06T02:42:47;8.60;99.90
44487;DHT22;30191;50.908;6.962;2024-01-06T02:45:13;8.60;99.90
44487;DHT22;30191;50.908;6.962;2024-01-06T02:47:38;8.60;99.90
44487;DHT22;30191;50.908;6.962;2024-01-06T02:50:05;8.70;99.90
44487;DHT22;30191;50.908;6.962;2024-01-06T02:52:30;8.80;99.90
44487;DHT22;30191;50.908;6.962;2024-01-06T02:54:56;8.60;99.90
44487;DHT22;30191;50.908;6.962;2024-01-06T02:57:22;8.70;99.90
44487;DHT22;30191;50.908;6.962;2024-01-06T02:59:47;8.80;99.90
44487;DHT22;30191;50.908;6.962;2024-01-06T03:02:13;8.70;99.90
44487;DHT22;30191;50.908;6.962;2024-01-06T03:04:39;8.70;99.90
44487;DHT22;30191;50.908;6.962;2024-01-06T03:07:04;8.60;99.90
44487;DHT22;30191;50.908;6.962;2024-01-06T03:09:30;8.60;99.90
44487;DHT22;30191;50.908;6.962;2024-01-06T03:11:55;8.60;99.90
44487;DHT22;30191;50.908;6.962;2024-01-06T03:14:21;8.60;99.90
44487;DHT22;30191;50.908;6.962;2024-01-06T03:16:47;8.60;99.90
44487;DHT22;30191;50.908;6.962;2024-01-06T03:19:12;8.60;99.90
44487;DHT22;30191;50.908;6.962;2024-01-06T03:21:38;8.60;99.90
44487;DHT22;30191;50.908;6.962;2024-01-06T03:24:04;8.60;99.90
44487;DHT22;30191;50.908;6.962;2024-01-06T03:26:30;8.70;99.90
44487;DHT22;30191;50.908;6.962;2024-01-06T03:28:56;8.60;99.90
44487;DHT22;30191;50.908;6.962;2024-01-06T03:31:21;8.70;99.90
44487;DHT22;30191;50.908;6.962;2024-01-06T03:33:48;8.70;99.90
44487;DHT22;30191;50.908;6.962;2024-01-06T03:36:13;8.70;99.90
44487;DHT22;30191;50.908;6.962;2024-01-06T03:38:42;8.70;99.90
44487;DHT22;30191;50.908;6.962;2024-01-06T03:41:08;8.70;99.90
44487;DHT22;30191;50.908;6.962;2024-01-06T03:43:33;8.70;99.90
44487;DHT22;30191;50.908;6.962;2024-01-06T03:45:59;8.70;99.90
44487;DHT22;30191;50.908;6.962;2024-01-06T03:48:26;8.70;99.90
44487;DHT22;30191;50.908;6.962;2024-01-06T03:50:51;8.80;99.90
44487;DHT22;30191;50.908;6.962;2024-01-06T03:53:17;8.80;99.90
44487;DHT22;30191;50.908;6.962;2024-01-06T03:55:42;8.80;99.90
44487;DHT22;30191;50.908;6.962;2024-01-06T03:58:08;8.80;99.90
44487;DHT22;30191;50.908;6.962;2024-01-06T04:00:34;8.90;99.90
44487;DHT22;30191;50.908;6.962;2024-01-06T04:02:59;8.90;99.90
44487;DHT22;30191;50.908;6.962;2024-01-06T04:05:25;8.80;99.90
44487;DHT22;30191;50.908;6.962;2024-01-06T04:07:51;8.80;99.90
44487;DHT22;30191;50.908;6.962;2024-01-06T04:10:16;8.80;99.90
44487;DHT22;30191;50.908;6.962;2024-01-06T04:12:42;8.80;99.90
44487;DHT22;30191;50.908;6.962;2024-01-06T04:15:08;8.70;99.90
44487;DHT22;30191;50.908;6.962;2024-01-06T04:17:34;8.70;99.90
44487;DHT22;30191;50.908;6.962;2024-01-06T04:19:59;8.80;99.90
44487;DHT22;30191;50.908;6.962;2024-01-06T04:22:25;8.80;99.90
44487;DHT22;30191;50.908;6.962;2024-01-06T04:24:50;8.80;99.90
44487;DHT22;30191;50.908;6.962;2024-01-06T04:27:17;8.80;99.90
44487;DHT22;30191;50.908;6.962;2024-01-06T04:29:42;8.70;99.90
44487;DHT22;30191;50.908;6.962;2024-01-06T04:32:10;8.80;99.90
44487;DHT22;30191;50.908;6.962;2024-01-06T04:34:35;8.90;99.90
44487;DHT22;30191;50.908;6.962;2024-01-06T04:37:01;8.80;99.90
44487;DHT22;30191;50.908;6.962;2024-01-06T04:39:26;8.80;99.90
44487;DHT22;30191;50.908;6.962;2024-01-06T04:41:52;8.80;99.90
44487;DHT22;30191;50.908;6.962;2024-01-06T04:44:21;8.80;99.90
44487;DHT22;30191;50.908;6.962;2024-01-06T04:46:47;8.90;99.90
44487;DHT22;30191;50.908;6.962;2024-01-06T04:49:13;8.90;99.90
44487;DHT22;30191;50.908;6.962;2024-01-06T04:51:38;8.90;99.90
44487;DHT22;30191;50.908;6.962;2024-01-06T04:54:04;8.80;99.90
44487;DHT22;30191;50.908;6.962;2024-01-06T04:56:29;8.80;99.90
44487;DHT22;30191;50.908;6.962;2024-01-06T04:58:55;8.80;99.90
44487;DHT22;30191;50.908;6.962;2024-01-06T05:01:21;8.80;99.90
44487;DHT22;30191;50.908;6.962;2024-01-06T05:03:47;8.90;99.90
44487;DHT22;30191;50.908;6.962;2024-01-06T05:06:13;8.90;99.90
44487;DHT22;30191;50.908;6.962;2024-01-06T05:08:38;9.00;99.90
44487;DHT22;30191;50.908;6.962;2024-01-06T05:11:10;8.90;99.90
44487;DHT22;30191;50.908;6.962;2024-01-06T05:13:36;9.00;99.90
44487;DHT22;30191;50.908;6.962;2024-01-06T05:16:01;9.00;99.90
44487;DHT22;30191;50.908;6.962;2024-01-06T05:18:27;8.90;99.90
44487;DHT22;30191;50.908;6.962;2024-01-06T05:20:53;8.90;99.90
44487;DHT22;30191;50.908;6.962;2024-01-06T05:23:19;8.90;99.90
44487;DHT22;30191;50.908;6.962;2024-01-06T05:25:44;9.00;99.90
44487;DHT22;30191;50.908;6.962;2024-01-06T05:28:10;8.90;99.90
44487;DHT22;30191;50.908;6.962;2024-01-06T05:30:36;8.90;99.90
44487;DHT22;30191;50.908;6.962;2024-01-06T05:33:01;8.80;99.90
44487;DHT22;30191;50.908;6.962;2024-01-06T05:35:28;8.70;99.90
44487;DHT22;30191;50.908;6.962;2024-01-06T05:37:53;8.60;99.90
44487;DHT22;30191;50.908;6.962;2024-01-06T05:40:19;8.50;99.90
44487;DHT22;30191;50.908;6.962;2024-01-06T05:42:45;8.40;99.90
44487;DHT22;30191;50.908;6.962;2024-01-06T05:45:11;8.20;99.90
44487;DHT22;30191;50.908;6.962;2024-01-06T05:47:39;8.10;99.90
44487;DHT22;30191;50.908;6.962;2024-01-06T05:50:06;8.10;99.90
44487;DHT22;30191;50.908;6.962;2024-01-06T05:52:34;8.10;99.90
44487;DHT22;30191;50.908;6.962;2024-01-06T05:55:00;8.00;99.90
44487;DHT22;30191;50.908;6.962;2024-01-06T05:57:25;8.10;99.90
44487;DHT22;30191;50.908;6.962;2024-01-06T05:59:51;8.00;99.90
44487;DHT22;30191;50.908;6.962;2024-01-06T06:02:16;7.90;99.90
44487;DHT22;30191;50.908;6.962;2024-01-06T06:04:42;7.80;99.90
44487;DHT22;30191;50.908;6.962;2024-01-06T06:07:08;7.70;99.90
44487;DHT22;30191;50.908;6.962;2024-01-06T06:09:33;7.70;99.90
44487;DHT22;30191;50.908;6.962;2024-01-06T06:12:00;7.70;99.90
44487;DHT22;30191;50.908;6.962;2024-01-06T06:14:25;7.70;99.90
44487;DHT22;30191;50.908;6.962;2024-01-06T06:16:51;7.60;99.90
44487;DHT22;30191;50.908;6.962;2024-01-06T06:19:17;7.50;99.90
44487;DHT22;30191;50.908;6.962;2024-01-06T06:21:44;7.50;99.90
44487;DHT22;30191;50.908;6.962;2024-01-06T06:24:09;7.50;99.90
44487;DHT22;30191;50.908;6.962;2024-01-06T06:26:35;7.40;99.90
44487;DHT22;30191;50.908;6.962;2024-01-06T06:29:00;7.40;99.90
44487;DHT22;30191;50.908;6.962;2024-01-06T06:31:26;7.30;99.90
44487;DHT22;30191;50.908;6.962;2024-01-06T06:33:52;7.40;99.90
44487;DHT22;30191;50.908;6.962;2024-01-06T06:36:18;7.40;99.90
44487;DHT22;30191;50.908;6.962;2024-01-06T06:38:43;7.40;99.90
44487;DHT22;30191;50.908;6.962;2024-01-06T06:41:09;7.40;99.90
44487;DHT22;30191;50.908;6.962;2024-01-06T06:43:34;7.30;99.90
44487;DHT22;30191;50.908;6.962;2024-01-06T06:46:00;7.40;99.90
44487;DHT22;30191;50.908;6.962;2024-01-06T06:48:26;7.30;99.90
44487;DHT22;30191;50.908;6.962;2024-01-06T06:50:51;7.40;99.90
44487;DHT22;30191;50.908;6.962;2024-01-06T06:53:17;7.40;99.90
44487;DHT22;30191;50.908;6.962;2024-01-06T06:55:43;7.30;99.90
44487;DHT22;30191;50.908;6.962;2024-01-06T06:58:09;7.40;99.90
44487;DHT22;30191;50.908;6.962;2024-01-06T07:00:35;7.30;99.90
44487;DHT22;30191;50.908;6.962;2024-01-06T07:03:00;7.30;99.90
44487;DHT22;30191;50.908;6.962;2024-01-06T07:05:26;7.30;99.90
44487;DHT22;30191;50.908;6.962;2024-01-06T07:07:52;7.30;99.90
44487;DHT22;30191;50.908;6.962;2024-01-06T07:10:17;7.40;99.90
44487;DHT22;30191;50.908;6.962;2024-01-06T07:12:43;7.30;99.90
44487;DHT22;30191;50.908;6.962;2024-01-06T07:15:09;7.40;99.90
44487;DHT22;30191;50.908;6.962;2024-01-06T07:17:37;7.40;99.90
44487;DHT22;30191;50.908;6.962;2024-01-06T07:20:05;7.40;99.90
44487;DHT22;30191;50.908;6.962;2024-01-06T07:22:32;7.30;99.90
44487;DHT22;30191;50.908;6.962;2024-01-06T07:25:00;7.30;99.90
44487;DHT22;30191;50.908;6.962;2024-01-06T07:27:25;7.30;99.90
44487;DHT22;30191;50.908;6.962;2024-01-06T07:29:51;7.30;99.90
44487;DHT22;30191;50.908;6.962;2024-01-06T07:32:16;7.30;99.90
44487;DHT22;30191;50.908;6.962;2024-01-06T07:34:42;7.30;99.90
44487;DHT22;30191;50.908;6.962;2024-01-06T07:37:09;7.30;99.90
44487;DHT22;30191;50.908;6.962;2024-01-06T07:39:34;7.30;99.90
44487;DHT22;30191;50.908;6.962;2024-01-06T07:42:00;7.30;99.90
44487;DHT22;30191;50.908;6.962;2024-01-06T07:44:26;7.30;99.90
44487;DHT22;30191;50.908;6.962;2024-01-06T07:46:52;7.20;99.90
44487;DHT22;30191;50.908;6.962;2024-01-06T07:49:18;7.20;99.90
44487;DHT22;30191;50.908;6.962;2024-01-06T07:51:44;7.20;99.90
44487;DHT22;30191;50.908;6.962;2024-01-06T07:54:09;7.20;99.90
44487;DHT22;30191;50.908;6.962;2024-01-06T07:56:37;7.10;99.90
44487;DHT22;30191;50.908;6.962;2024-01-06T07:59:03;7.10;99.90
44487;DHT22;30191;50.908;6.962;2024-01-06T08:01:28;7.20;99.90
44487;DHT22;30191;50.908;6.962;2024-01-06T08:03:54;7.20;99.90
44487;DHT22;30191;50.908;6.962;2024-01-06T08:06:19;7.20;99.90
44487;DHT22;30191;50.908;6.962;2024-01-06T08:08:45;7.20;99.90
44487;DHT22;30191;50.908;6.962;2024-01-06T08:11:11;7.20;99.90
44487;DHT22;30191;50.908;6.962;2024-01-06T08:13:37;7.20;99.90
44487;DHT22;30191;50.908;6.962;2024-01-06T08:16:03;7.10;99.90
44487;DHT22;30191;50.908;6.962;2024-01-06T08:18:29;7.10;99.90
44487;DHT22;30191;50.908;6.962;2024-01-06T08:20:54;7.10;99.90
44487;DHT22;30191;50.908;6.962;2024-01-06T08:23:20;7.10;99.90
44487;DHT22;30191;50.908;6.962;2024-01-06T08:25:46;7.10;99.90
44487;DHT22;30191;50.908;6.962;2024-01-06T08:28:12;7.10;99.90
44487;DHT22;30191;50.908;6.962;2024-01-06T08:30:40;7.10;99.90
44487;DHT22;30191;50.908;6.962;2024-01-06T08:33:05;7.10;99.90
44487;DHT22;30191;50.908;6.962;2024-01-06T08:35:31;7.00;99.90
44487;DHT22;30191;50.908;6.962;2024-01-06T08:37:57;7.00;99.90
44487;DHT22;30191;50.908;6.962;2024-01-06T08:40:23;7.00;99.90
44487;DHT22;30191;50.908;6.962;2024-01-06T08:42:49;7.00;99.90
44487;DHT22;30191;50.908;6.962;2024-01-06T08:45:14;6.90;99.90
44487;DHT22;30191;50.908;6.962;2024-01-06T08:47:40;6.90;99.90
44487;DHT22;30191;50.908;6.962;2024-01-06T08:50:07;6.90;99.90
44487;DHT22;30191;50.908;6.962;2024-01-06T08:52:32;6.90;99.90
44487;DHT22;30191;50.908;6.962;2024-01-06T08:54:58;6.90;99.90
44487;DHT22;30191;50.908;6.962;2024-01-06T08:57:23;6.90;99.90
44487;DHT22;30191;50.908;6.962;2024-01-06T08:59:49;6.90;99.90
44487;DHT22;30191;50.908;6.962;2024-01-06T09:02:15;6.90;99.90
44487;DHT22;30191;50.908;6.962;2024-01-06T09:04:40;7.00;99.90
44487;DHT22;30191;50.908;6.962;2024-01-06T09:07:06;7.10;99.90
44487;DHT22;30191;50.908;6.962;2024-01-06T09:09:31;7.20;99.90
44487;DHT22;30191;50.908;6.962;2024-01-06T09:11:57;7.20;99.90
44487;DHT22;30191;50.908;6.962;2024-01-06T09:14:23;7.10;99.90
44487;DHT22;30191;50.908;6.962;2024-01-06T09:16:48;7.20;99.90
44487;DHT22;30191;50.908;6.962;2024-01-06T09:19:14;7.20;99.90
44487;DHT22;30191;50.908;6.962;2024-01-06T09:21:39;7.20;99.90
44487;DHT22;30191;50.908;6.962;2024-01-06T09:24:05;7.10;99.90
44487;DHT22;30191;50.908;6.962;2024-01-06T09:26:34;7.10;99.90
44487;DHT22;30191;50.908;6.962;2024-01-06T09:29:01;7.00;99.90
44487;DHT22;30191;50.908;6.962;2024-01-06T09:31:27;7.00;99.90
44487;DHT22;30191;50.908;6.962;2024-01-06T09:33:52;7.00;99.90
44487;DHT22;30191;50.908;6.962;2024-01-06T09:36:18;6.90;99.90
44487;DHT22;30191;50.908;6.962;2024-01-06T09:38:44;6.90;99.90
44487;DHT22;30191;50.908;6.962;2024-01-06T09:41:09;6.90;99.90
44487;DHT22;30191;50.908;6.962;2024-01-06T09:43:35;6.90;99.90
44487;DHT22;30191;50.908;6.962;2024-01-06T09:46:10;6.90;99.90
44487;DHT22;30191;50.908;6.962;2024-01-06T09:48:40;6.90;99.90
44487;DHT22;30191;50.908;6.962;2024-01-06T09:51:10;6.90;99.90
44487;DHT22;30191;50.908;6.962;2024-01-06T09:53:43;6.90;99.90
44487;DHT22;30191;50.908;6.962;2024-01-06T09:56:14;6.90;99.90
44487;DHT22;30191;50.908;6.962;2024-01-06T09:58:41;6.80;99.90
44487;DHT22;30191;50.908;6.962;2024-01-06T10:01:07;6.70;99.90
44487;DHT22;30191;50.908;6.962;2024-01-06T10:03:35;6.70;99.90
44487;DHT22;30191;50.908;6.962;2024-01-06T10:06:01;6.70;99.90
44487;DHT22;30191;50.908;6.962;2024-01-06T10:08:30;6.80;99.90
44487;DHT22;30191;50.908;6.962;2024-01-06T10:10:58;6.90;99.90
44487;DHT22;30191;50.908;6.962;2024-01-06T10:13:25;6.90;99.90
44487;DHT22;30191;50.908;6.962;2024-01-06T10:15:50;6.80;99.90
44487;DHT22;30191;50.908;6.962;2024-01-06T10:18:16;6.80;99.90
44487;DHT22;30191;50.908;6.962;2024-01-06T10:20:44;6.90;99.90
44487;DHT22;30191;50.908;6.962;2024-01-06T10:23:10;6.90;99.90
44487;DHT22;30191;50.908;6.962;2024-01-06T10:25:37;6.80;99.90
44487;DHT22;30191;50.908;6.962;2024-01-06T10:28:02;6.80;99.90
44487;DHT22;30191;50.908;6.962;2024-01-06T10:30:28;6.70;99.90
44487;DHT22;30191;50.908;6.962;2024-01-06T10:32:54;6.70;99.90
44487;DHT22;30191;50.908;6.962;2024-01-06T10:35:20;6.80;99.90
44487;DHT22;30191;50.908;6.962;2024-01-06T10:37:45;6.90;99.90
44487;DHT22;30191;50.908;6.962;2024-01-06T10:40:14;6.80;99.90
44487;DHT22;30191;50.908;6.962;2024-01-06T10:42:44;6.80;99.90
44487;DHT22;30191;50.908;6.962;2024-01-06T10:45:13;6.80;99.90
44487;DHT22;30191;50.908;6.962;2024-01-06T10:47:42;6.80;99.90
44487;DHT22;30191;50.908;6.962;2024-01-06T10:50:09;6.80;99.90
44487;DHT22;30191;50.908;6.962;2024-01-06T10:52:37;6.90;99.90
44487;DHT22;30191;50.908;6.962;2024-01-06T10:55:04;6.90;99.90
44487;DHT22;30191;50.908;6.962;2024-01-06T10:57:31;6.90;99.90
44487;DHT22;30191;50.908;6.962;2024-01-06T11:00:00;6.90;99.90
44487;DHT22;30191;50.908;6.962;2024-01-06T11:02:26;6.90;99.90
44487;DHT22;30191;50.908;6.962;2024-01-06T11:04:52;6.90;99.90
44487;DHT22;30191;50.908;6.962;2024-01-06T11:07:23;6.90;99.90
44487;DHT22;30191;50.908;6.962;2024-01-06T11:12:18;6.90;99.90
44487;DHT22;30191;50.908;6.962;2024-01-06T11:14:44;6.90;99.90
44487;DHT22;30191;50.908;6.962;2024-01-06T11:17:11;6.90;99.90
44487;DHT22;30191;50.908;6.962;2024-01-06T11:22:29;6.90;99.90
44487;DHT22;30191;50.908;6.962;2024-01-06T11:25:08;6.80;99.90
44487;DHT22;30191;50.908;6.962;2024-01-06T11:27:34;6.90;99.90
44487;DHT22;30191;50.908;6.962;2024-01-06T11:30:03;7.00;99.90
44487;DHT22;30191;50.908;6.962;2024-01-06T11:32:36;6.90;99.90
44487;DHT22;30191;50.908;6.962;2024-01-06T11:35:09;7.00;99.90
44487;DHT22;30191;50.908;6.962;2024-01-06T11:40:16;7.00;99.90
44487;DHT22;30191;50.908;6.962;2024-01-06T11:42:48;7.00;99.90
44487;DHT22;30191;50.908;6.962;2024-01-06T11:45:14;7.10;99.90
44487;DHT22;30191;50.908;6.962;2024-01-06T11:47:48;7.10;99.90
44487;DHT22;30191;50.908;6.962;2024-01-06T11:50:14;7.00;99.90
44487;DHT22;30191;50.908;6.962;2024-01-06T11:52:40;7.00;99.90
44487;DHT22;30191;50.908;6.962;2024-01-06T11:55:08;7.10;99.90
44487;DHT22;30191;50.908;6.962;2024-01-06T11:57:34;7.10;99.90
44487;DHT22;30191;50.908;6.962;2024-01-06T12:00:00;7.10;99.90
44487;DHT22;30191;50.908;6.962;2024-01-06T12:02:26;7.00;99.90
44487;DHT22;30191;50.908;6.962;2024-01-06T12:04:52;7.00;99.90
44487;DHT22;30191;50.908;6.962;2024-01-06T12:07:20;6.90;99.90
44487;DHT22;30191;50.908;6.962;2024-01-06T12:09:48;6.90;99.90
44487;DHT22;30191;50.908;6.962;2024-01-06T12:12:17;7.00;99.90
44487;DHT22;30191;50.908;6.962;2024-01-06T12:14:43;6.90;99.90
44487;DHT22;30191;50.908;6.962;2024-01-06T12:17:09;6.90;99.90
44487;DHT22;30191;50.908;6.962;2024-01-06T12:19:35;6.90;99.90
44487;DHT22;30191;50.908;6.962;2024-01-06T12:22:01;6.90;99.90
44487;DHT22;30191;50.908;6.962;2024-01-06T12:24:28;6.90;99.90
44487;DHT22;30191;50.908;6.962;2024-01-06T12:26:58;6.90;99.90
44487;DHT22;30191;50.908;6.962;2024-01-06T12:29:28;6.90;99.90
44487;DHT22;30191;50.908;6.962;2024-01-06T12:31:59;6.90;99.90
44487;DHT22;30191;50.908;6.962;2024-01-06T12:34:25;6.80;99.90
44487;DHT22;30191;50.908;6.962;2024-01-06T12:36:53;6.80;99.90
44487;DHT22;30191;50.908;6.962;2024-01-06T12:39:20;6.70;99.90
44487;DHT22;30191;50.908;6.962;2024-01-06T12:41:46;6.60;99.90
44487;DHT22;30191;50.908;6.962;2024-01-06T12:44:12;6.60;99.90
44487;DHT22;30191;50.908;6.962;2024-01-06T12:46:38;6.60;99.90
44487;DHT22;30191;50.908;6.962;2024-01-06T12:49:04;6.60;99.90
44487;DHT22;30191;50.908;6.962;2024-01-06T12:51:30;6.50;99.90
44487;DHT22;30191;50.908;6.962;2024-01-06T12:53:55;6.40;99.90
44487;DHT22;30191;50.908;6.962;2024-01-06T12:56:21;6.40;99.90
44487;DHT22;30191;50.908;6.962;2024-01-06T12:58:47;6.40;99.90
44487;DHT22;30191;50.908;6.962;2024-01-06T13:01:12;6.40;99.90
44487;DHT22;30191;50.908;6.962;2024-01-06T13:03:38;6.50;99.90
44487;DHT22;30191;50.908;6.962;2024-01-06T13:06:04;6.50;99.90
44487;DHT22;30191;50.908;6.962;2024-01-06T13:08:30;6.40;99.90
44487;DHT22;30191;50.908;6.962;2024-01-06T13:10:56;6.40;99.90
44487;DHT22;30191;50.908;6.962;2024-01-06T13:13:22;6.30;99.90
44487;DHT22;30191;50.908;6.962;2024-01-06T13:15:48;6.20;99.90
44487;DHT22;30191;50.908;6.962;2024-01-06T13:18:13;6.10;99.90
44487;DHT22;30191;50.908;6.962;2024-01-06T13:20:39;6.00;99.90
44487;DHT22;30191;50.908;6.962;2024-01-06T13:23:09;6.00;99.90
44487;DHT22;30191;50.908;6.962;2024-01-06T13:25:37;6.00;99.90
44487;DHT22;30191;50.908;6.962;2024-01-06T13:28:03;6.10;99.90
44487;DHT22;30191;50.908;6.962;2024-01-06T13:30:29;6.10;99.90
44487;DHT22;30191;50.908;6.962;2024-01-06T13:32:55;6.00;99.90
44487;DHT22;30191;50.908;6.962;2024-01-06T13:35:21;6.10;99.90
44487;DHT22;30191;50.908;6.962;2024-01-06T13:37:50;6.00;99.90
44487;DHT22;30191;50.908;6.962;2024-01-06T13:40:17;6.00;99.90
44487;DHT22;30191;50.908;6.962;2024-01-06T13:42:48;6.00;99.90
44487;DHT22;30191;50.908;6.962;2024-01-06T13:45:14;6.00;99.90
44487;DHT22;30191;50.908;6.962;2024-01-06T13:47:41;6.00;99.90
44487;DHT22;30191;50.908;6.962;2024-01-06T13:50:11;6.00;99.90
44487;DHT22;30191;50.908;6.962;2024-01-06T13:52:37;6.10;99.90
44487;DHT22;30191;50.908;6.962;2024-01-06T13:55:03;6.00;99.90
44487;DHT22;30191;50.908;6.962;2024-01-06T13:57:28;6.00;99.90
44487;DHT22;30191;50.908;6.962;2024-01-06T13:59:54;6.00;99.90
44487;DHT22;30191;50.908;6.962;2024-01-06T14:02:20;6.00;99.90
44487;DHT22;30191;50.908;6.962;2024-01-06T14:04:46;6.00;99.90
44487;DHT22;30191;50.908;6.962;2024-01-06T14:07:11;6.00;99.90
44487;DHT22;30191;50.908;6.962;2024-01-06T14:09:37;6.00;99.90
44487;DHT22;30191;50.908;6.962;2024-01-06T14:12:03;6.00;99.90
44487;DHT22;30191;50.908;6.962;2024-01-06T14:14:33;5.90;99.90
44487;DHT22;30191;50.908;6.962;2024-01-06T14:16:59;6.00;99.90
44487;DHT22;30191;50.908;6.962;2024-01-06T14:19:25;5.90;99.90
44487;DHT22;30191;50.908;6.962;2024-01-06T14:21:50;5.80;99.90
44487;DHT22;30191;50.908;6.962;2024-01-06T14:24:17;5.90;99.90
44487;DHT22;30191;50.908;6.962;2024-01-06T14:26:53;5.90;99.90
44487;DHT22;30191;50.908;6.962;2024-01-06T14:29:19;5.90;99.90
44487;DHT22;30191;50.908;6.962;2024-01-06T14:31:44;6.00;99.90
44487;DHT22;30191;50.908;6.962;2024-01-06T14:34:10;5.90;99.90
44487;DHT22;30191;50.908;6.962;2024-01-06T14:36:36;5.90;99.90
44487;DHT22;30191;50.908;6.962;2024-01-06T14:39:01;5.90;99.90
44487;DHT22;30191;50.908;6.962;2024-01-06T14:41:29;6.00;99.90
44487;DHT22;30191;50.908;6.962;2024-01-06T14:43:55;5.90;99.90
44487;DHT22;30191;50.908;6.962;2024-01-06T14:46:20;5.90;99.90
44487;DHT22;30191;50.908;6.962;2024-01-06T14:48:46;5.90;99.90
44487;DHT22;30191;50.908;6.962;2024-01-06T14:51:11;5.90;99.90
44487;DHT22;30191;50.908;6.962;2024-01-06T14:53:37;5.90;99.90
44487;DHT22;30191;50.908;6.962;2024-01-06T14:56:03;5.80;99.90
44487;DHT22;30191;50.908;6.962;2024-01-06T14:58:29;5.80;99.90
44487;DHT22;30191;50.908;6.962;2024-01-06T15:00:55;5.70;99.90
44487;DHT22;30191;50.908;6.962;2024-01-06T15:03:21;5.70;99.90
44487;DHT22;30191;50.908;6.962;2024-01-06T15:05:49;5.70;99.90
44487;DHT22;30191;50.908;6.962;2024-01-06T15:08:14;5.70;99.90
44487;DHT22;30191;50.908;6.962;2024-01-06T15:10:40;5.70;99.90
44487;DHT22;30191;50.908;6.962;2024-01-06T15:13:05;5.70;99.90
44487;DHT22;30191;50.908;6.962;2024-01-06T15:15:31;5.70;99.90
44487;DHT22;30191;50.908;6.962;2024-01-06T15:17:57;5.70;99.90
44487;DHT22;30191;50.908;6.962;2024-01-06T15:20:22;5.70;99.90
44487;DHT22;30191;50.908;6.962;2024-01-06T15:22:48;5.60;99.90
44487;DHT22;30191;50.908;6.962;2024-01-06T15:25:14;5.60;99.90
44487;DHT22;30191;50.908;6.962;2024-01-06T15:27:40;5.60;99.90
44487;DHT22;30191;50.908;6.962;2024-01-06T15:30:06;5.60;99.90
44487;DHT22;30191;50.908;6.962;2024-01-06T15:32:37;5.60;99.90
44487;DHT22;30191;50.908;6.962;2024-01-06T15:35:03;5.70;99.90
44487;DHT22;30191;50.908;6.962;2024-01-06T15:37:32;5.60;99.90
44487;DHT22;30191;50.908;6.962;2024-01-06T15:39:58;5.60;99.90
44487;DHT22;30191;50.908;6.962;2024-01-06T15:42:24;5.60;99.90
44487;DHT22;30191;50.908;6.962;2024-01-06T15:44:49;5.70;99.90
44487;DHT22;30191;50.908;6.962;2024-01-06T15:47:15;5.70;99.90